createdAt,value
2017-03-19T00:00:06.007Z,0
2017-03-19T00:01:05.961Z,0
2017-03-19T00:02:05.659Z,0
2017-03-19T00:03:05.640Z,0
2017-03-19T00:04:05.929Z,0
2017-03-19T00:05:05.602Z,0
2017-03-19T00:06:05.605Z,0
2017-03-19T00:07:05.558Z,0
2017-03-19T00:08:05.861Z,0
2017-03-19T00:09:05.825Z,0
2017-03-19T00:10:05.801Z,0
2017-03-19T00:11:05.470Z,0
2017-03-19T00:12:05.742Z,0
2017-03-19T00:13:05.138Z,0
2017-03-19T00:14:05.702Z,0
2017-03-19T00:15:05.374Z,0
2017-03-19T00:16:05.376Z,0
2017-03-19T00:17:05.654Z,0
2017-03-19T00:18:05.336Z,0
2017-03-19T00:19:05.651Z,0
2017-03-19T00:20:05.582Z,0
2017-03-19T00:21:05.578Z,0
2017-03-19T00:22:05.582Z,0
2017-03-19T00:23:05.552Z,0
2017-03-19T00:24:04.938Z,0
2017-03-19T00:25:04.918Z,0
2017-03-19T00:26:05.161Z,0
2017-03-19T00:27:05.487Z,0
2017-03-19T00:28:05.457Z,0
2017-03-19T00:29:04.812Z,0
2017-03-19T00:30:05.396Z,0
2017-03-19T00:31:05.089Z,0
2017-03-19T00:32:05.377Z,0
2017-03-19T00:33:05.349Z,0
2017-03-19T00:34:05.324Z,0
2017-03-19T00:35:05.307Z,0
2017-03-19T00:36:05.270Z,0
2017-03-19T00:37:04.952Z,0
2017-03-19T00:38:04.949Z,0
2017-03-19T00:39:04.914Z,0
2017-03-19T00:40:05.213Z,0
2017-03-19T00:41:04.881Z,0
2017-03-19T00:42:04.966Z,0
2017-03-19T00:43:04.839Z,0
2017-03-19T00:44:05.108Z,0
2017-03-19T00:45:05.094Z,0
2017-03-19T00:46:05.067Z,0
2017-03-19T00:47:05.079Z,0
2017-03-19T00:48:05.024Z,0
2017-03-19T00:49:04.717Z,0
2017-03-19T00:50:04.985Z,0
2017-03-19T00:51:04.680Z,0
2017-03-19T00:52:04.953Z,0
2017-03-19T00:53:04.945Z,0
2017-03-19T00:54:04.598Z,0
2017-03-19T00:55:04.632Z,0
2017-03-19T00:56:04.555Z,0
2017-03-19T00:57:03.930Z,0
2017-03-19T00:58:04.500Z,0
2017-03-19T00:59:04.811Z,0
2017-03-19T01:00:04.209Z,0
2017-03-19T01:01:04.792Z,0
2017-03-19T01:02:04.466Z,0
2017-03-19T01:03:04.167Z,0
2017-03-19T01:04:04.717Z,0
2017-03-19T01:05:04.689Z,0
2017-03-19T01:06:04.372Z,0
2017-03-19T01:07:04.077Z,0
2017-03-19T01:08:04.660Z,0
2017-03-19T01:09:04.592Z,0
2017-03-19T01:10:04.301Z,0
2017-03-19T01:11:04.567Z,0
2017-03-19T01:12:03.945Z,0
2017-03-19T01:13:04.504Z,0
2017-03-19T01:14:04.214Z,0
2017-03-19T01:15:04.504Z,0
2017-03-19T01:16:03.554Z,0
2017-03-19T01:17:04.152Z,0
2017-03-19T01:18:04.487Z,0
2017-03-19T01:19:04.401Z,0
2017-03-19T01:20:04.401Z,0
2017-03-19T01:21:04.090Z,0
2017-03-19T01:22:04.345Z,0
2017-03-19T01:23:04.338Z,0
2017-03-19T01:24:04.017Z,0
2017-03-19T01:25:03.995Z,0
2017-03-19T01:26:04.330Z,0
2017-03-19T01:27:04.272Z,0
2017-03-19T01:28:04.238Z,0
2017-03-19T01:29:03.626Z,0
2017-03-19T01:30:04.189Z,0
2017-03-19T01:31:04.173Z,0
2017-03-19T01:32:03.836Z,0
2017-03-19T01:33:03.623Z,0
2017-03-19T01:34:04.092Z,0
2017-03-19T01:35:03.793Z,0
2017-03-19T01:36:03.751Z,0
2017-03-19T01:37:04.124Z,0
2017-03-19T01:38:04.070Z,0
2017-03-19T01:39:03.698Z,0
2017-03-19T01:40:03.735Z,0
2017-03-19T01:41:03.694Z,0
2017-03-19T01:42:03.937Z,0
2017-03-19T01:43:03.922Z,0
2017-03-19T01:44:03.957Z,0
2017-03-19T01:45:03.575Z,0
2017-03-19T01:46:03.555Z,0
2017-03-19T01:47:03.538Z,0
2017-03-19T01:48:03.871Z,0
2017-03-19T01:49:03.795Z,0
2017-03-19T01:50:03.520Z,0
2017-03-19T01:51:03.436Z,0
2017-03-19T01:52:03.114Z,0
2017-03-19T01:53:03.733Z,0
2017-03-19T01:54:03.778Z,0
2017-03-19T01:55:03.716Z,0
2017-03-19T01:56:03.761Z,0
2017-03-19T01:57:03.747Z,0
2017-03-19T01:58:03.700Z,0
2017-03-19T01:59:02.997Z,0
2017-03-19T02:00:03.269Z,0
2017-03-19T02:01:03.556Z,0
2017-03-19T02:02:03.229Z,0
2017-03-19T02:03:03.497Z,0
2017-03-19T02:04:03.573Z,0
2017-03-19T02:05:02.636Z,0
2017-03-19T02:06:03.164Z,0
2017-03-19T02:07:03.123Z,0
2017-03-19T02:08:03.108Z,0
2017-03-19T02:09:03.079Z,0
2017-03-19T02:10:03.376Z,0
2017-03-19T02:11:02.758Z,0
2017-03-19T02:12:03.337Z,0
2017-03-19T02:13:03.316Z,0
2017-03-19T02:14:03.282Z,0
2017-03-19T02:15:03.281Z,0
2017-03-19T02:16:02.940Z,0
2017-03-19T02:17:02.648Z,0
2017-03-19T02:18:03.289Z,0
2017-03-19T02:19:03.189Z,0
2017-03-19T02:20:02.531Z,0
2017-03-19T02:21:02.838Z,0
2017-03-19T02:22:02.530Z,0
2017-03-19T02:23:02.797Z,0
2017-03-19T02:24:03.117Z,0
2017-03-19T02:25:02.855Z,0
2017-03-19T02:26:02.723Z,0
2017-03-19T02:27:02.725Z,0
2017-03-19T02:28:02.405Z,0
2017-03-19T02:29:02.357Z,0
2017-03-19T02:30:02.661Z,0
2017-03-19T02:31:02.348Z,0
2017-03-19T02:32:02.312Z,0
2017-03-19T02:33:02.574Z,0
2017-03-19T02:34:02.852Z,0
2017-03-19T02:35:02.892Z,0
2017-03-19T02:36:02.215Z,0
2017-03-19T02:37:02.495Z,0
2017-03-19T02:38:02.485Z,0
2017-03-19T02:39:02.487Z,0
2017-03-19T02:40:02.736Z,0
2017-03-19T02:41:02.778Z,0
2017-03-19T02:42:02.729Z,0
2017-03-19T02:43:02.726Z,0
2017-03-19T02:44:02.415Z,0
2017-03-19T02:45:02.415Z,0
2017-03-19T02:46:02.653Z,0
2017-03-19T02:47:02.425Z,0
2017-03-19T02:48:02.563Z,0
2017-03-19T02:49:02.276Z,0
2017-03-19T02:50:02.603Z,0
2017-03-19T02:51:02.536Z,0
2017-03-19T02:52:01.902Z,0
2017-03-19T02:53:02.580Z,0
2017-03-19T02:54:01.839Z,0
2017-03-19T02:55:02.509Z,0
2017-03-19T02:56:02.111Z,0
2017-03-19T02:57:02.121Z,0
2017-03-19T02:58:01.779Z,0
2017-03-19T02:59:02.393Z,0
2017-03-19T03:00:02.355Z,0
2017-03-19T03:01:02.346Z,0
2017-03-19T03:02:01.976Z,0
2017-03-19T03:03:02.293Z,0
2017-03-19T03:04:01.345Z,0
2017-03-19T03:05:01.953Z,0
2017-03-19T03:06:02.226Z,0
2017-03-19T03:07:01.903Z,0
2017-03-19T03:08:01.878Z,0
2017-03-19T03:09:02.181Z,0
2017-03-19T03:10:01.225Z,0
2017-03-19T03:11:01.514Z,0
2017-03-19T03:12:02.135Z,0
2017-03-19T03:13:02.178Z,0
2017-03-19T03:14:02.071Z,0
2017-03-19T03:15:02.118Z,0
2017-03-19T03:16:01.838Z,0
2017-03-19T03:17:01.679Z,0
2017-03-19T03:18:01.746Z,0
2017-03-19T03:19:02.004Z,0
2017-03-19T03:20:02.037Z,0
2017-03-19T03:21:01.970Z,0
2017-03-19T03:22:01.605Z,0
2017-03-19T03:23:01.886Z,0
2017-03-19T03:24:01.650Z,0
2017-03-19T03:25:01.524Z,0
2017-03-19T03:26:01.523Z,0
2017-03-19T03:27:01.799Z,0
2017-03-19T03:28:01.492Z,0
2017-03-19T03:29:00.890Z,0
2017-03-19T03:30:01.431Z,0
2017-03-19T03:31:01.400Z,0
2017-03-19T03:32:01.100Z,0
2017-03-19T03:33:01.372Z,0
2017-03-19T03:34:01.768Z,0
2017-03-19T03:35:01.028Z,0
2017-03-19T03:36:00.767Z,0
2017-03-19T03:37:01.621Z,0
2017-03-19T03:38:01.305Z,0
2017-03-19T03:39:01.564Z,0
2017-03-19T03:40:01.587Z,0
2017-03-19T03:41:01.199Z,0
2017-03-19T03:42:01.199Z,0
2017-03-19T03:43:01.534Z,0
2017-03-19T03:44:01.280Z,0
2017-03-19T03:45:01.505Z,0
2017-03-19T03:46:01.414Z,0
2017-03-19T03:47:01.489Z,0
2017-03-19T03:48:01.369Z,0
2017-03-19T03:49:01.410Z,0
2017-03-19T03:50:01.344Z,0
2017-03-19T03:51:01.049Z,0
2017-03-19T03:52:01.076Z,0
2017-03-19T03:53:01.029Z,0
2017-03-19T03:54:01.260Z,0
2017-03-19T03:55:01.007Z,0
2017-03-19T03:56:01.283Z,0
2017-03-19T03:57:00.571Z,0
2017-03-19T03:58:01.196Z,0
2017-03-19T03:59:00.828Z,0
2017-03-19T04:00:00.508Z,0
2017-03-19T04:01:01.202Z,0
2017-03-19T04:02:00.747Z,0
2017-03-19T04:03:00.757Z,0
2017-03-19T04:04:00.185Z,0
2017-03-19T04:05:01.111Z,0
2017-03-19T04:06:00.773Z,0
2017-03-19T04:07:00.685Z,0
2017-03-19T04:08:00.977Z,0
2017-03-19T04:09:00.689Z,0
2017-03-19T04:10:00.678Z,0
2017-03-19T04:11:00.279Z,0
2017-03-19T04:12:00.622Z,0
2017-03-19T04:13:00.016Z,0
2017-03-19T04:14:00.904Z,0
2017-03-19T04:15:00.837Z,0
2017-03-19T04:16:00.920Z,0
2017-03-19T04:17:00.528Z,0
2017-03-19T04:18:00.544Z,0
2017-03-19T04:19:00.537Z,0
2017-03-19T04:20:00.435Z,0
2017-03-19T04:21:00.793Z,0
2017-03-19T04:22:00.369Z,0
2017-03-19T04:23:00.388Z,0
2017-03-19T04:24:00.026Z,0
2017-03-19T04:25:00.619Z,0
2017-03-19T04:26:00.581Z,0
2017-03-19T04:26:59.948Z,0
2017-03-19T04:28:00.546Z,0
2017-03-19T04:28:59.918Z,0
2017-03-19T04:30:00.200Z,0
2017-03-19T04:31:00.571Z,0
2017-03-19T04:31:59.550Z,0
2017-03-19T04:33:00.137Z,0
2017-03-19T04:34:00.428Z,0
2017-03-19T04:34:59.791Z,0
2017-03-19T04:36:00.174Z,0
2017-03-19T04:37:00.052Z,0
2017-03-19T04:37:59.806Z,0
2017-03-19T04:38:59.716Z,0
2017-03-19T04:39:59.999Z,0
2017-03-19T04:41:00.007Z,0
2017-03-19T04:41:59.643Z,0
2017-03-19T04:43:00.070Z,0
2017-03-19T04:43:59.967Z,0
2017-03-19T04:44:59.919Z,0
2017-03-19T04:45:59.942Z,0
2017-03-19T04:47:00.171Z,0
2017-03-19T04:47:59.842Z,0
2017-03-19T04:48:59.200Z,0
2017-03-19T04:50:00.243Z,0
2017-03-19T04:51:00.073Z,0
2017-03-19T04:51:59.755Z,0
2017-03-19T04:52:59.738Z,0
2017-03-19T04:53:59.788Z,0
2017-03-19T04:54:59.755Z,0
2017-03-19T04:55:59.372Z,0
2017-03-19T04:56:59.724Z,0
2017-03-19T04:57:59.964Z,0
2017-03-19T04:58:59.628Z,0
2017-03-19T04:59:59.716Z,0
2017-03-19T05:00:59.255Z,0
2017-03-19T05:01:59.975Z,0
2017-03-19T05:02:59.537Z,0
2017-03-19T05:03:59.524Z,0
2017-03-19T05:04:59.504Z,0
2017-03-19T05:05:59.477Z,0
2017-03-19T05:06:59.151Z,0
2017-03-19T05:07:59.428Z,0
2017-03-19T05:08:59.740Z,0
2017-03-19T05:09:58.866Z,0
2017-03-19T05:10:59.679Z,0
2017-03-19T05:11:59.650Z,0
2017-03-19T05:12:59.337Z,0
2017-03-19T05:13:59.308Z,0
2017-03-19T05:14:59.296Z,0
2017-03-19T05:15:59.269Z,0
2017-03-19T05:16:59.554Z,0
2017-03-19T05:17:59.541Z,0
2017-03-19T05:18:59.204Z,0
2017-03-19T05:19:59.216Z,0
2017-03-19T05:20:59.483Z,0
2017-03-19T05:21:59.447Z,0
2017-03-19T05:22:59.413Z,0
2017-03-19T05:23:58.834Z,0
2017-03-19T05:24:59.082Z,0
2017-03-19T05:25:59.381Z,0
2017-03-19T05:26:59.371Z,0
2017-03-19T05:27:59.311Z,0
2017-03-19T05:28:59.316Z,0
2017-03-19T05:29:58.749Z,0
2017-03-19T05:30:59.252Z,0
2017-03-19T05:31:58.957Z,0
2017-03-19T05:32:59.236Z,0
2017-03-19T05:33:59.218Z,0
2017-03-19T05:34:58.873Z,0
2017-03-19T05:35:58.907Z,0
2017-03-19T05:36:58.842Z,0
2017-03-19T05:37:58.510Z,0
2017-03-19T05:38:58.817Z,0
2017-03-19T05:39:58.554Z,0
2017-03-19T05:40:59.085Z,0
2017-03-19T05:41:59.035Z,0
2017-03-19T05:42:58.737Z,0
2017-03-19T05:43:59.012Z,0
2017-03-19T05:44:58.991Z,0
2017-03-19T05:45:58.948Z,0
2017-03-19T05:46:58.680Z,0
2017-03-19T05:47:58.326Z,0
2017-03-19T05:48:58.610Z,0
2017-03-19T05:49:58.586Z,0
2017-03-19T05:50:58.577Z,0
2017-03-19T05:51:58.236Z,0
2017-03-19T05:52:58.556Z,0
2017-03-19T05:53:58.577Z,0
2017-03-19T05:54:58.794Z,0
2017-03-19T05:55:58.780Z,0
2017-03-19T05:56:58.748Z,0
2017-03-19T05:57:58.154Z,0
2017-03-19T05:58:58.718Z,5
2017-03-19T05:59:58.397Z,5
2017-03-19T06:00:58.648Z,0
2017-03-19T06:01:58.343Z,0
2017-03-19T06:02:58.634Z,0
2017-03-19T06:03:58.368Z,5
2017-03-19T06:04:58.575Z,5
2017-03-19T06:05:57.968Z,5
2017-03-19T06:06:57.930Z,0
2017-03-19T06:07:58.275Z,0
2017-03-19T06:08:58.518Z,0
2017-03-19T06:09:57.887Z,0
2017-03-19T06:10:57.849Z,5
2017-03-19T06:11:58.429Z,5
2017-03-19T06:12:58.180Z,5
2017-03-19T06:13:58.188Z,0
2017-03-19T06:14:58.395Z,0
2017-03-19T06:15:57.814Z,0
2017-03-19T06:16:57.755Z,0
2017-03-19T06:17:57.752Z,5
2017-03-19T06:18:58.333Z,5
2017-03-19T06:19:57.987Z,5
2017-03-19T06:20:58.251Z,5
2017-03-19T06:21:57.633Z,5
2017-03-19T06:22:57.933Z,5
2017-03-19T06:23:58.227Z,5
2017-03-19T06:24:57.881Z,10
2017-03-19T06:25:57.860Z,5
2017-03-19T06:26:57.549Z,5
2017-03-19T06:27:57.815Z,10
2017-03-19T06:28:57.866Z,5
2017-03-19T06:29:57.787Z,10
2017-03-19T06:30:58.058Z,5
2017-03-19T06:31:58.086Z,10
2017-03-19T06:32:57.731Z,10
2017-03-19T06:33:57.094Z,10
2017-03-19T06:34:57.086Z,10
2017-03-19T06:35:57.986Z,10
2017-03-19T06:36:57.956Z,10
2017-03-19T06:37:57.934Z,10
2017-03-19T06:38:57.924Z,10
2017-03-19T06:39:57.892Z,10
2017-03-19T06:40:57.258Z,10
2017-03-19T06:41:57.532Z,10
2017-03-19T06:42:57.220Z,10
2017-03-19T06:43:57.530Z,10
2017-03-19T06:44:57.799Z,15
2017-03-19T06:45:57.457Z,15
2017-03-19T06:46:57.478Z,10
2017-03-19T06:47:57.138Z,10
2017-03-19T06:48:57.395Z,10
2017-03-19T06:49:57.450Z,10
2017-03-19T06:50:57.718Z,10
2017-03-19T06:51:57.346Z,10
2017-03-19T06:52:57.628Z,10
2017-03-19T06:53:57.004Z,10
2017-03-19T06:54:57.323Z,10
2017-03-19T06:55:57.264Z,10
2017-03-19T06:56:57.345Z,10
2017-03-19T06:57:57.242Z,10
2017-03-19T06:58:56.994Z,10
2017-03-19T06:59:57.504Z,5
2017-03-19T07:00:57.462Z,5
2017-03-19T07:01:56.843Z,5
2017-03-19T07:02:57.129Z,5
2017-03-19T07:03:57.117Z,5
2017-03-19T07:04:57.398Z,5
2017-03-19T07:05:57.050Z,5
2017-03-19T07:06:57.190Z,5
2017-03-19T07:07:56.728Z,5
2017-03-19T07:08:57.030Z,5
2017-03-19T07:09:56.749Z,5
2017-03-19T07:10:57.266Z,10
2017-03-19T07:11:56.963Z,10
2017-03-19T07:12:56.997Z,10
2017-03-19T07:13:57.215Z,10
2017-03-19T07:14:56.960Z,10
2017-03-19T07:15:56.962Z,10
2017-03-19T07:16:56.859Z,10
2017-03-19T07:17:57.145Z,10
2017-03-19T07:18:57.125Z,10
2017-03-19T07:19:57.105Z,5
2017-03-19T07:20:56.478Z,10
2017-03-19T07:21:56.835Z,10
2017-03-19T07:22:56.434Z,10
2017-03-19T07:23:56.718Z,15
2017-03-19T07:24:57.029Z,10
2017-03-19T07:25:57.004Z,10
2017-03-19T07:26:56.678Z,10
2017-03-19T07:27:56.741Z,10
2017-03-19T07:28:56.975Z,15
2017-03-19T07:29:56.935Z,15
2017-03-19T07:30:56.899Z,15
2017-03-19T07:31:56.569Z,15
2017-03-19T07:32:56.557Z,15
2017-03-19T07:33:56.845Z,20
2017-03-19T07:34:56.516Z,20
2017-03-19T07:35:56.566Z,15
2017-03-19T07:36:56.155Z,15
2017-03-19T07:37:56.752Z,15
2017-03-19T07:38:56.764Z,20
2017-03-19T07:39:56.482Z,25
2017-03-19T07:40:56.371Z,20
2017-03-19T07:41:56.133Z,15
2017-03-19T07:42:56.690Z,15
2017-03-19T07:43:56.427Z,20
2017-03-19T07:44:55.999Z,25
2017-03-19T07:45:56.621Z,25
2017-03-19T07:46:56.588Z,30
2017-03-19T07:47:56.557Z,25
2017-03-19T07:48:56.536Z,20
2017-03-19T07:49:55.602Z,30
2017-03-19T07:50:56.195Z,35
2017-03-19T07:51:56.174Z,35
2017-03-19T07:52:56.171Z,30
2017-03-19T07:53:55.923Z,30
2017-03-19T07:54:56.125Z,30
2017-03-19T07:55:56.379Z,30
2017-03-19T07:56:56.372Z,25
2017-03-19T07:57:56.060Z,25
2017-03-19T07:58:56.029Z,30
2017-03-19T07:59:56.312Z,35
2017-03-19T08:00:56.045Z,35
2017-03-19T08:01:56.049Z,30
2017-03-19T08:02:55.948Z,30
2017-03-19T08:03:55.628Z,30
2017-03-19T08:04:56.229Z,30
2017-03-19T08:05:56.209Z,30
2017-03-19T08:06:55.873Z,25
2017-03-19T08:07:55.862Z,30
2017-03-19T08:08:55.975Z,30
2017-03-19T08:09:56.130Z,35
2017-03-19T08:10:56.137Z,30
2017-03-19T08:11:55.774Z,30
2017-03-19T08:12:56.066Z,25
2017-03-19T08:13:55.775Z,25
2017-03-19T08:14:55.744Z,25
2017-03-19T08:15:55.720Z,25
2017-03-19T08:16:55.680Z,25
2017-03-19T08:17:55.979Z,20
2017-03-19T08:18:55.642Z,20
2017-03-19T08:19:55.665Z,20
2017-03-19T08:20:55.910Z,20
2017-03-19T08:21:55.906Z,15
2017-03-19T08:22:55.883Z,15
2017-03-19T08:23:55.557Z,15
2017-03-19T08:24:55.647Z,15
2017-03-19T08:25:55.805Z,15
2017-03-19T08:26:55.186Z,15
2017-03-19T08:27:55.787Z,15
2017-03-19T08:28:55.766Z,15
2017-03-19T08:29:55.740Z,15
2017-03-19T08:30:55.709Z,15
2017-03-19T08:31:55.693Z,15
2017-03-19T08:32:55.381Z,15
2017-03-19T08:33:55.382Z,20
2017-03-19T08:34:55.333Z,25
2017-03-19T08:35:55.325Z,25
2017-03-19T08:36:55.591Z,35
2017-03-19T08:37:55.592Z,30
2017-03-19T08:38:55.030Z,30
2017-03-19T08:39:55.223Z,25
2017-03-19T08:40:55.535Z,25
2017-03-19T08:41:55.264Z,25
2017-03-19T08:42:55.221Z,20
2017-03-19T08:43:54.892Z,20
2017-03-19T08:44:55.232Z,20
2017-03-19T08:45:55.232Z,25
2017-03-19T08:46:55.106Z,25
2017-03-19T08:47:55.394Z,25
2017-03-19T08:48:55.398Z,25
2017-03-19T08:49:55.336Z,20
2017-03-19T08:50:55.007Z,20
2017-03-19T08:51:54.997Z,20
2017-03-19T08:52:55.318Z,20
2017-03-19T08:53:55.295Z,20
2017-03-19T08:54:55.262Z,20
2017-03-19T08:55:55.220Z,20
2017-03-19T08:56:55.215Z,30
2017-03-19T08:57:54.281Z,35
2017-03-19T08:58:54.662Z,30
2017-03-19T08:59:55.285Z,30
2017-03-19T09:00:55.116Z,30
2017-03-19T09:01:54.919Z,30
2017-03-19T09:02:54.871Z,30
2017-03-19T09:03:54.778Z,25
2017-03-19T09:04:54.760Z,30
2017-03-19T09:05:55.036Z,20
2017-03-19T09:06:55.029Z,20
2017-03-19T09:07:54.415Z,20
2017-03-19T09:08:54.988Z,20
2017-03-19T09:09:54.700Z,20
2017-03-19T09:10:54.647Z,25
2017-03-19T09:11:54.613Z,25
2017-03-19T09:12:54.903Z,25
2017-03-19T09:13:54.864Z,25
2017-03-19T09:14:54.602Z,25
2017-03-19T09:15:54.856Z,25
2017-03-19T09:16:54.488Z,20
2017-03-19T09:17:54.826Z,20
2017-03-19T09:18:54.171Z,20
2017-03-19T09:19:54.604Z,15
2017-03-19T09:20:54.465Z,20
2017-03-19T09:21:54.517Z,20
2017-03-19T09:22:54.513Z,20
2017-03-19T09:23:54.104Z,20
2017-03-19T09:24:54.672Z,15
2017-03-19T09:25:54.344Z,20
2017-03-19T09:26:54.336Z,20
2017-03-19T09:27:54.130Z,20
2017-03-19T09:28:54.636Z,20
2017-03-19T09:29:54.595Z,20
2017-03-19T09:30:54.263Z,20
2017-03-19T09:31:54.057Z,20
2017-03-19T09:32:53.647Z,20
2017-03-19T09:33:54.610Z,20
2017-03-19T09:34:54.207Z,15
2017-03-19T09:35:54.179Z,15
2017-03-19T09:36:54.446Z,15
2017-03-19T09:37:54.149Z,15
2017-03-19T09:38:54.405Z,15
2017-03-19T09:39:54.181Z,15
2017-03-19T09:40:54.072Z,15
2017-03-19T09:41:54.348Z,15
2017-03-19T09:42:54.038Z,20
2017-03-19T09:43:53.993Z,20
2017-03-19T09:44:54.299Z,25
2017-03-19T09:45:53.956Z,25
2017-03-19T09:46:53.625Z,30
2017-03-19T09:47:53.665Z,30
2017-03-19T09:48:53.630Z,25
2017-03-19T09:49:53.894Z,25
2017-03-19T09:50:54.187Z,25
2017-03-19T09:54:24.091Z,35
2017-03-19T09:54:53.796Z,35
2017-03-19T09:55:53.787Z,35
2017-03-19T09:56:53.737Z,30
2017-03-19T09:57:54.125Z,35
2017-03-19T09:58:53.740Z,35
2017-03-19T09:59:54.088Z,40
2017-03-19T10:00:54.023Z,45
2017-03-19T10:01:53.966Z,50
2017-03-19T10:02:53.640Z,55
2017-03-19T10:03:53.925Z,50
2017-03-19T10:04:53.595Z,40
2017-03-19T10:05:53.899Z,35
2017-03-19T10:06:53.859Z,30
2017-03-19T10:07:53.552Z,35
2017-03-19T10:08:53.552Z,30
2017-03-19T10:09:53.966Z,25
2017-03-19T10:10:53.848Z,30
2017-03-19T10:11:53.776Z,35
2017-03-19T10:12:53.760Z,35
2017-03-19T10:13:53.736Z,40
2017-03-19T10:14:53.156Z,50
2017-03-19T10:15:53.547Z,50
2017-03-19T10:16:53.678Z,50
2017-03-19T10:17:53.350Z,55
2017-03-19T10:18:53.636Z,50
2017-03-19T10:19:53.636Z,45
2017-03-19T10:20:53.299Z,40
2017-03-19T10:21:52.963Z,40
2017-03-19T10:22:53.577Z,45
2017-03-19T10:23:53.266Z,40
2017-03-19T10:24:53.617Z,40
2017-03-19T10:25:53.520Z,30
2017-03-19T10:26:53.202Z,30
2017-03-19T10:27:53.461Z,30
2017-03-19T10:28:53.165Z,25
2017-03-19T10:29:52.870Z,20
2017-03-19T10:30:53.098Z,20
2017-03-19T10:31:53.398Z,25
2017-03-19T10:32:53.391Z,25
2017-03-19T10:33:53.365Z,25
2017-03-19T10:34:53.360Z,25
2017-03-19T10:35:53.406Z,25
2017-03-19T10:36:52.983Z,25
2017-03-19T10:37:53.269Z,30
2017-03-19T10:38:52.953Z,25
2017-03-19T10:39:52.954Z,25
2017-03-19T10:40:53.218Z,25
2017-03-19T10:41:53.208Z,20
2017-03-19T10:42:53.191Z,20
2017-03-19T10:43:52.867Z,25
2017-03-19T10:44:53.183Z,25
2017-03-19T10:45:52.830Z,25
2017-03-19T10:46:52.808Z,30
2017-03-19T10:47:52.541Z,30
2017-03-19T10:48:52.796Z,25
2017-03-19T10:49:53.157Z,20
2017-03-19T10:50:52.426Z,20
2017-03-19T10:51:52.698Z,20
2017-03-19T10:52:53.029Z,15
2017-03-19T10:53:53.030Z,15
2017-03-19T10:54:52.991Z,20
2017-03-19T10:55:52.952Z,20
2017-03-19T10:56:52.925Z,20
2017-03-19T10:57:52.609Z,20
2017-03-19T10:58:52.975Z,20
2017-03-19T10:59:52.890Z,25
2017-03-19T11:00:52.846Z,25
2017-03-19T11:01:52.817Z,25
2017-03-19T11:02:52.507Z,30
2017-03-19T11:03:52.787Z,30
2017-03-19T11:04:52.830Z,30
2017-03-19T11:05:52.745Z,30
2017-03-19T11:06:52.755Z,30
2017-03-19T11:07:52.443Z,30
2017-03-19T11:08:52.705Z,35
2017-03-19T11:09:52.688Z,35
2017-03-19T11:10:52.706Z,40
2017-03-19T11:11:52.664Z,35
2017-03-19T11:12:52.323Z,35
2017-03-19T11:13:52.601Z,40
2017-03-19T11:14:52.279Z,50
2017-03-19T11:15:52.286Z,55
2017-03-19T11:16:52.248Z,45
2017-03-19T11:17:52.557Z,45
2017-03-19T11:18:51.904Z,35
2017-03-19T11:19:52.193Z,40
2017-03-19T11:20:52.179Z,40
2017-03-19T11:21:52.487Z,45
2017-03-19T11:22:52.464Z,50
2017-03-19T11:23:52.448Z,65
2017-03-19T11:24:52.115Z,90
2017-03-19T11:25:52.386Z,110
2017-03-19T11:26:52.070Z,140
2017-03-19T11:27:52.395Z,200
2017-03-19T11:28:52.338Z,220
2017-03-19T11:29:52.307Z,200
2017-03-19T11:30:51.747Z,175
2017-03-19T11:31:52.316Z,155
2017-03-19T11:32:51.677Z,145
2017-03-19T11:33:51.968Z,130
2017-03-19T11:34:52.227Z,165
2017-03-19T11:35:52.197Z,155
2017-03-19T11:36:52.194Z,120
2017-03-19T11:37:52.190Z,105
2017-03-19T11:38:52.177Z,90
2017-03-19T11:39:52.117Z,90
2017-03-19T11:40:52.126Z,90
2017-03-19T11:41:51.784Z,90
2017-03-19T11:42:52.082Z,90
2017-03-19T11:43:52.096Z,75
2017-03-19T11:44:52.044Z,60
2017-03-19T11:45:52.041Z,50
2017-03-19T11:46:52.013Z,75
2017-03-19T11:47:52.009Z,90
2017-03-19T11:48:51.982Z,100
2017-03-19T11:49:51.988Z,105
2017-03-19T11:50:51.936Z,95
2017-03-19T11:51:51.617Z,90
2017-03-19T11:52:51.928Z,70
2017-03-19T11:53:51.938Z,50
2017-03-19T11:54:51.885Z,50
2017-03-19T11:55:51.556Z,50
2017-03-19T11:56:51.855Z,55
2017-03-19T11:57:51.816Z,60
2017-03-19T11:58:51.803Z,75
2017-03-19T11:59:51.786Z,75
2017-03-19T12:00:51.446Z,60
2017-03-19T12:01:51.738Z,45
2017-03-19T12:02:51.740Z,35
2017-03-19T12:03:51.722Z,25
2017-03-19T12:04:51.669Z,30
2017-03-19T12:05:51.689Z,40
2017-03-19T12:06:51.665Z,40
2017-03-19T12:07:51.666Z,35
2017-03-19T12:08:51.607Z,30
2017-03-19T12:09:51.576Z,20
2017-03-19T12:10:51.594Z,20
2017-03-19T12:11:51.568Z,25
2017-03-19T12:12:51.267Z,35
2017-03-19T12:13:51.537Z,25
2017-03-19T12:14:50.998Z,25
2017-03-19T12:15:51.493Z,25
2017-03-19T12:16:51.457Z,25
2017-03-19T12:17:51.454Z,25
2017-03-19T12:18:51.446Z,25
2017-03-19T12:19:51.445Z,30
2017-03-19T12:20:51.407Z,30
2017-03-19T12:21:51.371Z,30
2017-03-19T12:22:51.376Z,30
2017-03-19T12:23:51.376Z,35
2017-03-19T12:24:51.336Z,25
2017-03-19T12:25:51.302Z,30
2017-03-19T12:26:51.122Z,30
2017-03-19T12:27:51.286Z,35
2017-03-19T12:28:51.236Z,30
2017-03-19T12:29:51.362Z,30
2017-03-19T12:30:51.230Z,25
2017-03-19T12:31:50.718Z,25
2017-03-19T12:32:50.885Z,25
2017-03-19T12:33:51.163Z,25
2017-03-19T12:34:51.129Z,25
2017-03-19T12:35:51.093Z,20
2017-03-19T12:36:51.117Z,20
2017-03-19T12:37:50.595Z,25
2017-03-19T12:38:51.083Z,25
2017-03-19T12:39:51.035Z,25
2017-03-19T12:40:51.028Z,25
2017-03-19T12:41:50.843Z,30
2017-03-19T12:42:51.006Z,35
2017-03-19T12:43:50.952Z,30
2017-03-19T12:44:50.950Z,30
2017-03-19T12:45:50.305Z,30
2017-03-19T12:46:50.323Z,30
2017-03-19T12:47:50.903Z,30
2017-03-19T12:48:50.696Z,30
2017-03-19T12:49:50.867Z,30
2017-03-19T12:50:50.540Z,30
2017-03-19T12:51:50.826Z,30
2017-03-19T12:52:50.797Z,35
2017-03-19T12:53:50.800Z,40
2017-03-19T12:54:50.776Z,40
2017-03-19T12:55:50.747Z,30
2017-03-19T12:56:50.727Z,35
2017-03-19T12:57:50.694Z,30
2017-03-19T12:58:50.713Z,30
2017-03-19T12:59:50.665Z,25
2017-03-19T13:00:50.664Z,20
2017-03-19T13:01:50.349Z,25
2017-03-19T13:02:50.017Z,25
2017-03-19T13:03:50.354Z,30
2017-03-19T13:04:50.579Z,35
2017-03-19T13:05:50.558Z,45
2017-03-19T13:06:50.551Z,50
2017-03-19T13:07:50.235Z,50
2017-03-19T13:08:49.910Z,65
2017-03-19T13:09:50.169Z,70
2017-03-19T13:10:50.470Z,80
2017-03-19T13:11:50.446Z,70
2017-03-19T13:12:50.447Z,60
2017-03-19T13:13:50.429Z,65
2017-03-19T13:14:50.086Z,70
2017-03-19T13:15:50.067Z,75
2017-03-19T13:16:50.377Z,85
2017-03-19T13:17:50.083Z,120
2017-03-19T13:18:50.113Z,175
2017-03-19T13:19:49.784Z,175
2017-03-19T13:20:50.264Z,170
2017-03-19T13:21:50.264Z,155
2017-03-19T13:22:49.956Z,150
2017-03-19T13:23:50.232Z,135
2017-03-19T13:24:49.592Z,120
2017-03-19T13:25:50.191Z,110
2017-03-19T13:26:50.177Z,90
2017-03-19T13:27:50.168Z,70
2017-03-19T13:28:49.527Z,70
2017-03-19T13:29:49.889Z,60
2017-03-19T13:30:50.079Z,45
2017-03-19T13:31:49.767Z,40
2017-03-19T13:32:49.774Z,45
2017-03-19T13:33:49.748Z,45
2017-03-19T13:34:49.727Z,65
2017-03-19T13:35:50.013Z,85
2017-03-19T13:36:49.698Z,80
2017-03-19T13:37:49.986Z,90
2017-03-19T13:38:49.968Z,95
2017-03-19T13:39:49.628Z,85
2017-03-19T13:40:49.627Z,75
2017-03-19T13:41:49.379Z,85
2017-03-19T13:42:49.591Z,85
2017-03-19T13:43:49.862Z,95
2017-03-19T13:44:49.881Z,85
2017-03-19T13:45:48.936Z,70
2017-03-19T13:46:49.825Z,60
2017-03-19T13:47:49.513Z,45
2017-03-19T13:48:49.180Z,35
2017-03-19T13:49:49.756Z,25
2017-03-19T13:50:48.806Z,30
2017-03-19T13:51:49.714Z,30
2017-03-19T13:52:49.461Z,25
2017-03-19T13:53:49.387Z,20
2017-03-19T13:54:49.378Z,20
2017-03-19T13:55:49.372Z,15
2017-03-19T13:56:49.625Z,20
2017-03-19T13:57:49.643Z,25
2017-03-19T13:58:49.317Z,25
2017-03-19T13:59:49.326Z,20
2017-03-19T14:00:49.262Z,20
2017-03-19T14:01:49.557Z,25
2017-03-19T14:02:49.219Z,30
2017-03-19T14:03:49.228Z,40
2017-03-19T14:04:49.188Z,50
2017-03-19T14:05:49.167Z,55
2017-03-19T14:06:49.453Z,60
2017-03-19T14:07:48.883Z,65
2017-03-19T14:08:49.153Z,65
2017-03-19T14:09:49.151Z,65
2017-03-19T14:10:49.409Z,65
2017-03-19T14:11:49.102Z,60
2017-03-19T14:12:49.363Z,55
2017-03-19T14:13:49.349Z,50
2017-03-19T14:14:49.026Z,50
2017-03-19T14:15:49.276Z,50
2017-03-19T14:16:49.279Z,50
2017-03-19T14:17:49.036Z,60
2017-03-19T14:18:49.252Z,60
2017-03-19T14:19:48.954Z,60
2017-03-19T14:20:49.190Z,60
2017-03-19T14:21:49.195Z,50
2017-03-19T14:22:49.197Z,50
2017-03-19T14:23:49.163Z,50
2017-03-19T14:24:49.117Z,50
2017-03-19T14:25:49.104Z,50
2017-03-19T14:26:49.096Z,50
2017-03-19T14:27:49.077Z,50
2017-03-19T14:28:49.043Z,50
2017-03-19T14:29:49.051Z,50
2017-03-19T14:30:49.018Z,50